sensor_id;sensor_type;location;lat;lon;timestamp;pressure;altitude;pressure_sealevel;temperature;humidity
71964;BME280;59834;52.124;5.422;2023-06-19T00:01:01;100778.53;;;21.79;52.00
71964;BME280;59834;52.124;5.422;2023-06-19T00:03:27;100789.53;;;21.76;53.29
71964;BME280;59834;52.124;5.422;2023-06-19T00:05:54;100787.41;;;21.71;52.75
71964;BME280;59834;52.124;5.422;2023-06-19T00:08:20;100787.06;;;21.74;53.03
71964;BME280;59834;52.124;5.422;2023-06-19T00:10:48;100794.22;;;21.74;52.79
71964;BME280;59834;52.124;5.422;2023-06-19T00:13:14;100788.06;;;21.73;53.89
71964;BME280;59834;52.124;5.422;2023-06-19T00:15:41;100789.22;;;21.71;53.08
71964;BME280;59834;52.124;5.422;2023-06-19T00:18:07;100786.56;;;21.71;53.81
71964;BME280;59834;52.124;5.422;2023-06-19T00:20:34;100790.41;;;21.68;53.87
71964;BME280;59834;52.124;5.422;2023-06-19T00:23:02;100786.91;;;21.68;53.50
71964;BME280;59834;52.124;5.422;2023-06-19T00:25:28;100778.91;;;21.68;53.96
71964;BME280;59834;52.124;5.422;2023-06-19T00:27:55;100783.22;;;21.69;54.36
71964;BME280;59834;52.124;5.422;2023-06-19T00:30:22;100779.59;;;21.70;54.11
71964;BME280;59834;52.124;5.422;2023-06-19T00:32:48;100783.22;;;21.69;54.32
71964;BME280;59834;52.124;5.422;2023-06-19T00:35:16;100781.59;;;21.68;54.76
71964;BME280;59834;52.124;5.422;2023-06-19T00:37:44;100788.56;;;21.69;55.29
71964;BME280;59834;52.124;5.422;2023-06-19T00:40:28;100795.06;;;21.66;55.49
71964;BME280;59834;52.124;5.422;2023-06-19T00:42:55;100791.91;;;21.62;56.44
71964;BME280;59834;52.124;5.422;2023-06-19T00:45:22;100797.94;;;21.56;57.18
71964;BME280;59834;52.124;5.422;2023-06-19T00:47:52;100803.59;;;21.53;56.87
71964;BME280;59834;52.124;5.422;2023-06-19T00:50:20;100812.91;;;21.49;57.93
71964;BME280;59834;52.124;5.422;2023-06-19T00:52:48;100818.94;;;21.43;58.28
71964;BME280;59834;52.124;5.422;2023-06-19T00:55:15;100811.41;;;21.38;58.56
71964;BME280;59834;52.124;5.422;2023-06-19T00:57:43;100809.09;;;21.35;58.47
71964;BME280;59834;52.124;5.422;2023-06-19T01:00:10;100807.75;;;21.31;59.22
71964;BME280;59834;52.124;5.422;2023-06-19T01:02:38;100809.72;;;21.29;59.69
71964;BME280;59834;52.124;5.422;2023-06-19T01:05:05;100819.06;;;21.25;59.95
71964;BME280;59834;52.124;5.422;2023-06-19T01:07:58;100814.25;;;21.21;60.50
71964;BME280;59834;52.124;5.422;2023-06-19T01:10:31;100816.56;;;21.15;60.83
71964;BME280;59834;52.124;5.422;2023-06-19T01:13:08;100812.75;;;21.10;61.20
71964;BME280;59834;52.124;5.422;2023-06-19T01:15:38;100829.06;;;21.07;61.91
71964;BME280;59834;52.124;5.422;2023-06-19T01:18:06;100826.03;;;21.02;62.21
71964;BME280;59834;52.124;5.422;2023-06-19T01:20:33;100832.69;;;20.98;62.74
71964;BME280;59834;52.124;5.422;2023-06-19T01:23:08;100831.69;;;20.90;62.59
71964;BME280;59834;52.124;5.422;2023-06-19T01:25:35;100835.84;;;20.85;63.51
71964;BME280;59834;52.124;5.422;2023-06-19T01:28:06;100840.84;;;20.80;63.51
71964;BME280;59834;52.124;5.422;2023-06-19T01:30:37;100848.13;;;20.78;64.10
71964;BME280;59834;52.124;5.422;2023-06-19T01:33:20;100845.16;;;20.73;63.78
71964;BME280;59834;52.124;5.422;2023-06-19T01:35:50;100842.81;;;20.69;64.78
71964;BME280;59834;52.124;5.422;2023-06-19T01:38:19;100846.94;;;20.64;64.89
71964;BME280;59834;52.124;5.422;2023-06-19T01:40:48;100842.44;;;20.56;65.68
71964;BME280;59834;52.124;5.422;2023-06-19T01:43:15;100850.06;;;20.51;66.79
71964;BME280;59834;52.124;5.422;2023-06-19T01:45:42;100861.31;;;20.45;66.85
71964;BME280;59834;52.124;5.422;2023-06-19T01:48:09;100860.16;;;20.39;67.61
71964;BME280;59834;52.124;5.422;2023-06-19T01:50:35;100855.47;;;20.33;67.79
71964;BME280;59834;52.124;5.422;2023-06-19T01:53:02;100857.75;;;20.28;68.21
71964;BME280;59834;52.124;5.422;2023-06-19T01:55:29;100860.28;;;20.30;68.25
71964;BME280;59834;52.124;5.422;2023-06-19T01:57:55;100864.91;;;20.28;68.82
71964;BME280;59834;52.124;5.422;2023-06-19T02:00:22;100860.59;;;20.27;69.09
71964;BME280;59834;52.124;5.422;2023-06-19T02:02:49;100865.22;;;20.24;69.38
71964;BME280;59834;52.124;5.422;2023-06-19T02:05:15;100871.84;;;20.20;69.38
71964;BME280;59834;52.124;5.422;2023-06-19T02:07:42;100870.34;;;20.18;69.56
71964;BME280;59834;52.124;5.422;2023-06-19T02:10:09;100864.19;;;20.17;70.19
71964;BME280;59834;52.124;5.422;2023-06-19T02:12:36;100865.03;;;20.18;70.35
71964;BME280;59834;52.124;5.422;2023-06-19T02:15:03;100871.16;;;20.18;70.70
71964;BME280;59834;52.124;5.422;2023-06-19T02:17:29;100873.00;;;20.18;71.13
71964;BME280;59834;52.124;5.422;2023-06-19T02:19:56;100871.34;;;20.17;71.73
71964;BME280;59834;52.124;5.422;2023-06-19T02:22:23;100869.69;;;20.16;71.42
71964;BME280;59834;52.124;5.422;2023-06-19T02:24:49;100875.81;;;20.16;71.89
71964;BME280;59834;52.124;5.422;2023-06-19T02:27:16;100877.47;;;20.17;72.06
71964;BME280;59834;52.124;5.422;2023-06-19T02:29:43;100879.13;;;20.18;71.97
71964;BME280;59834;52.124;5.422;2023-06-19T02:32:09;100878.63;;;20.15;72.31
71964;BME280;59834;52.124;5.422;2023-06-19T02:34:36;100879.81;;;20.12;72.39
71964;BME280;59834;52.124;5.422;2023-06-19T02:37:02;100879.63;;;20.14;72.83
71964;BME280;59834;52.124;5.422;2023-06-19T02:39:29;100885.25;;;20.11;73.00
71964;BME280;59834;52.124;5.422;2023-06-19T02:41:56;100882.59;;;20.11;73.09
71964;BME280;59834;52.124;5.422;2023-06-19T02:44:22;100884.25;;;20.12;73.10
71964;BME280;59834;52.124;5.422;2023-06-19T02:46:48;100881.28;;;20.15;72.97
71964;BME280;59834;52.124;5.422;2023-06-19T02:49:15;100883.28;;;20.13;73.05
71964;BME280;59834;52.124;5.422;2023-06-19T02:51:41;100888.09;;;20.09;73.80
71964;BME280;59834;52.124;5.422;2023-06-19T02:54:08;100897.19;;;20.07;73.77
71964;BME280;59834;52.124;5.422;2023-06-19T02:56:35;100906.69;;;20.09;73.84
71964;BME280;59834;52.124;5.422;2023-06-19T02:59:01;100899.03;;;20.06;74.15
71964;BME280;59834;52.124;5.422;2023-06-19T03:01:27;100906.16;;;20.06;74.35
71964;BME280;59834;52.124;5.422;2023-06-19T03:03:55;100901.81;;;20.05;74.44
71964;BME280;59834;52.124;5.422;2023-06-19T03:06:21;100910.63;;;20.05;74.40
71964;BME280;59834;52.124;5.422;2023-06-19T03:08:48;100913.63;;;20.02;74.81
71964;BME280;59834;52.124;5.422;2023-06-19T03:11:14;100902.31;;;20.00;75.02
71964;BME280;59834;52.124;5.422;2023-06-19T03:13:47;100908.63;;;19.99;74.92
71964;BME280;59834;52.124;5.422;2023-06-19T03:16:13;100902.44;;;19.98;75.43
71964;BME280;59834;52.124;5.422;2023-06-19T03:18:42;100903.31;;;19.99;75.25
71964;BME280;59834;52.124;5.422;2023-06-19T03:21:08;100902.31;;;20.00;75.14
71964;BME280;59834;52.124;5.422;2023-06-19T03:23:35;100898.00;;;19.99;75.58
71964;BME280;59834;52.124;5.422;2023-06-19T03:26:01;100906.09;;;19.97;75.58
71964;BME280;59834;52.124;5.422;2023-06-19T03:28:28;100910.59;;;19.97;75.90
71964;BME280;59834;52.124;5.422;2023-06-19T03:30:55;100910.75;;;19.95;76.43
71964;BME280;59834;52.124;5.422;2023-06-19T03:33:21;100918.72;;;19.95;76.77
71964;BME280;59834;52.124;5.422;2023-06-19T03:35:48;100926.84;;;19.94;76.63
71964;BME280;59834;52.124;5.422;2023-06-19T03:38:14;100927.84;;;19.93;77.26
71964;BME280;59834;52.124;5.422;2023-06-19T03:40:41;100919.19;;;19.91;77.13
71964;BME280;59834;52.124;5.422;2023-06-19T03:43:08;100925.78;;;19.87;77.46
71964;BME280;59834;52.124;5.422;2023-06-19T03:45:34;100928.44;;;19.87;77.78
71964;BME280;59834;52.124;5.422;2023-06-19T03:48:01;100936.72;;;19.84;78.16
71964;BME280;59834;52.124;5.422;2023-06-19T03:50:27;100942.22;;;19.82;78.55
71964;BME280;59834;52.124;5.422;2023-06-19T03:52:54;100941.00;;;19.76;79.14
71964;BME280;59834;52.124;5.422;2023-06-19T03:55:21;100946.31;;;19.76;79.00
71964;BME280;59834;52.124;5.422;2023-06-19T03:57:47;100946.13;;;19.78;79.72
71964;BME280;59834;52.124;5.422;2023-06-19T04:00:14;100955.41;;;19.74;80.09
71964;BME280;59834;52.124;5.422;2023-06-19T04:02:42;100957.75;;;19.77;80.61
71964;BME280;59834;52.124;5.422;2023-06-19T04:05:08;100965.19;;;19.73;81.64
71964;BME280;59834;52.124;5.422;2023-06-19T04:07:35;100968.03;;;19.72;81.71
71964;BME280;59834;52.124;5.422;2023-06-19T04:10:03;100961.72;;;19.73;82.24
71964;BME280;59834;52.124;5.422;2023-06-19T04:12:30;100960.59;;;19.75;82.10
71964;BME280;59834;52.124;5.422;2023-06-19T04:14:56;100967.69;;;19.75;82.44
71964;BME280;59834;52.124;5.422;2023-06-19T04:17:23;100970.13;;;19.68;83.21
71964;BME280;59834;52.124;5.422;2023-06-19T04:19:49;100976.44;;;19.67;83.21
71964;BME280;59834;52.124;5.422;2023-06-19T04:22:16;100975.44;;;19.68;83.11
71964;BME280;59834;52.124;5.422;2023-06-19T04:24:43;100976.53;;;19.75;82.55
71964;BME280;59834;52.124;5.422;2023-06-19T04:27:09;100980.53;;;19.80;83.04
71964;BME280;59834;52.124;5.422;2023-06-19T04:29:37;100976.88;;;19.81;83.44
71964;BME280;59834;52.124;5.422;2023-06-19T04:32:03;100988.31;;;19.81;82.94
71964;BME280;59834;52.124;5.422;2023-06-19T04:34:41;101004.56;;;19.78;83.01
71964;BME280;59834;52.124;5.422;2023-06-19T04:37:12;100999.72;;;19.73;83.75
71964;BME280;59834;52.124;5.422;2023-06-19T04:39:39;101004.66;;;19.68;83.98
71964;BME280;59834;52.124;5.422;2023-06-19T04:42:06;101020.28;;;19.71;83.72
71964;BME280;59834;52.124;5.422;2023-06-19T04:44:32;101015.59;;;19.65;85.37
71964;BME280;59834;52.124;5.422;2023-06-19T04:47:00;101008.59;;;19.64;84.81
71964;BME280;59834;52.124;5.422;2023-06-19T04:49:30;101012.63;;;19.68;84.63
71964;BME280;59834;52.124;5.422;2023-06-19T04:51:57;101021.19;;;19.62;85.09
71964;BME280;59834;52.124;5.422;2023-06-19T04:54:25;101030.41;;;19.58;85.23
71964;BME280;59834;52.124;5.422;2023-06-19T04:56:52;101031.53;;;19.65;84.16
71964;BME280;59834;52.124;5.422;2023-06-19T04:59:20;101024.22;;;19.67;83.46
71964;BME280;59834;52.124;5.422;2023-06-19T05:01:47;101027.94;;;19.74;82.44
71964;BME280;59834;52.124;5.422;2023-06-19T05:04:14;101029.69;;;19.84;81.20
71964;BME280;59834;52.124;5.422;2023-06-19T05:06:40;101026.94;;;19.93;80.56
71964;BME280;59834;52.124;5.422;2023-06-19T05:09:09;101025.81;;;19.96;80.06
71964;BME280;59834;52.124;5.422;2023-06-19T05:11:35;101029.09;;;19.90;79.54
71964;BME280;59834;52.124;5.422;2023-06-19T05:14:02;101037.41;;;19.95;78.93
71964;BME280;59834;52.124;5.422;2023-06-19T05:16:29;101034.63;;;19.96;79.17
71964;BME280;59834;52.124;5.422;2023-06-19T05:18:56;101034.75;;;19.95;78.88
71964;BME280;59834;52.124;5.422;2023-06-19T05:21:22;101046.53;;;19.92;78.99
71964;BME280;59834;52.124;5.422;2023-06-19T05:23:49;101041.00;;;19.86;78.73
71964;BME280;59834;52.124;5.422;2023-06-19T05:26:17;101049.28;;;19.83;79.50
71964;BME280;59834;52.124;5.422;2023-06-19T05:28:43;101045.31;;;19.87;78.35
71964;BME280;59834;52.124;5.422;2023-06-19T05:31:10;101048.28;;;19.84;78.42
71964;BME280;59834;52.124;5.422;2023-06-19T05:33:36;101047.94;;;19.78;78.41
71964;BME280;59834;52.124;5.422;2023-06-19T05:36:03;101055.50;;;19.73;78.33
71964;BME280;59834;52.124;5.422;2023-06-19T05:38:30;101055.78;;;19.70;78.13
71964;BME280;59834;52.124;5.422;2023-06-19T05:40:57;101055.25;;;19.67;77.81
71964;BME280;59834;52.124;5.422;2023-06-19T05:43:24;101061.69;;;19.64;77.53
71964;BME280;59834;52.124;5.422;2023-06-19T05:45:54;101068.38;;;19.68;77.60
71964;BME280;59834;52.124;5.422;2023-06-19T05:48:22;101073.38;;;19.71;77.47
71964;BME280;59834;52.124;5.422;2023-06-19T05:50:49;101073.03;;;19.66;78.19
71964;BME280;59834;52.124;5.422;2023-06-19T05:53:15;101072.03;;;19.67;77.93
71964;BME280;59834;52.124;5.422;2023-06-19T05:55:42;101076.75;;;19.73;77.75
71964;BME280;59834;52.124;5.422;2023-06-19T05:58:09;101074.78;;;19.75;77.55
71964;BME280;59834;52.124;5.422;2023-06-19T06:00:35;101065.13;;;19.74;78.24
71964;BME280;59834;52.124;5.422;2023-06-19T06:03:02;101081.75;;;19.76;77.91
71964;BME280;59834;52.124;5.422;2023-06-19T06:05:29;101075.63;;;19.76;77.93
71964;BME280;59834;52.124;5.422;2023-06-19T06:07:55;101079.94;;;19.77;77.50
71964;BME280;59834;52.124;5.422;2023-06-19T06:10:23;101082.97;;;19.82;78.15
71964;BME280;59834;52.124;5.422;2023-06-19T06:12:52;101091.78;;;19.83;77.72
71964;BME280;59834;52.124;5.422;2023-06-19T06:15:18;101092.97;;;19.88;77.15
71964;BME280;59834;52.124;5.422;2023-06-19T06:17:45;101094.06;;;19.95;76.58
71964;BME280;59834;52.124;5.422;2023-06-19T06:20:11;101098.59;;;20.03;76.54
71964;BME280;59834;52.124;5.422;2023-06-19T06:22:39;101105.19;;;20.17;75.97
71964;BME280;59834;52.124;5.422;2023-06-19T06:25:06;101119.66;;;20.58;74.58
71964;BME280;59834;52.124;5.422;2023-06-19T06:27:36;101120.19;;;20.88;72.43
71964;BME280;59834;52.124;5.422;2023-06-19T06:30:03;101104.47;;;21.37;69.71
71964;BME280;59834;52.124;5.422;2023-06-19T06:32:30;101123.09;;;21.87;67.87
71964;BME280;59834;52.124;5.422;2023-06-19T06:34:57;101116.97;;;22.36;64.58
71964;BME280;59834;52.124;5.422;2023-06-19T06:37:25;101116.63;;;22.64;64.02
71964;BME280;59834;52.124;5.422;2023-06-19T06:39:52;101112.44;;;23.25;60.36
71964;BME280;59834;52.124;5.422;2023-06-19T06:42:18;101123.13;;;22.61;62.05
71964;BME280;59834;52.124;5.422;2023-06-19T06:44:45;101126.25;;;21.99;62.61
71964;BME280;59834;52.124;5.422;2023-06-19T06:47:12;101131.81;;;21.47;64.33
71964;BME280;59834;52.124;5.422;2023-06-19T06:49:38;101125.34;;;21.24;65.66
71964;BME280;59834;52.124;5.422;2023-06-19T06:52:05;101135.28;;;21.13;65.43
71964;BME280;59834;52.124;5.422;2023-06-19T06:54:32;101146.28;;;20.84;66.69
71964;BME280;59834;52.124;5.422;2023-06-19T06:56:59;101155.66;;;20.70;67.80
71964;BME280;59834;52.124;5.422;2023-06-19T06:59:26;101156.97;;;20.66;67.83
71964;BME280;59834;52.124;5.422;2023-06-19T07:01:56;101157.09;;;20.65;67.81
71964;BME280;59834;52.124;5.422;2023-06-19T07:04:23;101158.88;;;20.56;68.67
71964;BME280;59834;52.124;5.422;2023-06-19T07:06:49;101167.97;;;20.71;67.24
71964;BME280;59834;52.124;5.422;2023-06-19T07:09:17;101169.25;;;20.67;67.52
71964;BME280;59834;52.124;5.422;2023-06-19T07:11:44;101167.13;;;20.71;67.12
71964;BME280;59834;52.124;5.422;2023-06-19T07:14:10;101172.66;;;20.78;67.29
71964;BME280;59834;52.124;5.422;2023-06-19T07:16:37;101172.81;;;21.02;67.02
71964;BME280;59834;52.124;5.422;2023-06-19T07:19:04;101179.03;;;21.11;66.67
71964;BME280;59834;52.124;5.422;2023-06-19T07:21:31;101176.06;;;21.14;67.18
71964;BME280;59834;52.124;5.422;2023-06-19T07:23:58;101195.22;;;21.26;66.97
71964;BME280;59834;52.124;5.422;2023-06-19T07:26:25;101184.59;;;21.26;67.40
71964;BME280;59834;52.124;5.422;2023-06-19T07:28:52;101185.56;;;21.16;67.68
71964;BME280;59834;52.124;5.422;2023-06-19T07:31:19;101194.31;;;21.09;68.26
71964;BME280;59834;52.124;5.422;2023-06-19T07:33:47;101203.16;;;21.09;68.41
71964;BME280;59834;52.124;5.422;2023-06-19T07:36:14;101207.09;;;21.05;68.86
71964;BME280;59834;52.124;5.422;2023-06-19T07:38:43;101208.53;;;20.74;69.20
71964;BME280;59834;52.124;5.422;2023-06-19T07:41:13;101213.56;;;20.59;69.71
71964;BME280;59834;52.124;5.422;2023-06-19T07:43:42;101206.97;;;20.89;67.93
71964;BME280;59834;52.124;5.422;2023-06-19T07:46:09;101198.22;;;21.23;65.62
71964;BME280;59834;52.124;5.422;2023-06-19T07:48:36;101200.88;;;21.49;64.11
71964;BME280;59834;52.124;5.422;2023-06-19T07:51:02;101205.94;;;21.34;63.51
71964;BME280;59834;52.124;5.422;2023-06-19T07:53:29;101208.75;;;21.32;64.34
71964;BME280;59834;52.124;5.422;2023-06-19T07:55:55;101216.53;;;21.52;63.91
71964;BME280;59834;52.124;5.422;2023-06-19T07:58:22;101232.25;;;21.63;63.58
71964;BME280;59834;52.124;5.422;2023-06-19T08:00:48;101228.06;;;21.60;63.42
71964;BME280;59834;52.124;5.422;2023-06-19T08:03:15;101227.84;;;21.88;62.77
71964;BME280;59834;52.124;5.422;2023-06-19T08:05:41;101226.81;;;21.89;63.02
71964;BME280;59834;52.124;5.422;2023-06-19T08:08:08;101237.09;;;21.76;62.99
71964;BME280;59834;52.124;5.422;2023-06-19T08:10:35;101233.91;;;21.64;63.82
71964;BME280;59834;52.124;5.422;2023-06-19T08:13:01;101230.84;;;21.51;64.46
71964;BME280;59834;52.124;5.422;2023-06-19T08:15:28;101233.84;;;21.48;64.47
71964;BME280;59834;52.124;5.422;2023-06-19T08:17:54;101234.66;;;21.48;64.33
71964;BME280;59834;52.124;5.422;2023-06-19T08:20:20;101232.25;;;21.63;63.34
71964;BME280;59834;52.124;5.422;2023-06-19T08:22:48;101237.50;;;21.89;63.03
71964;BME280;59834;52.124;5.422;2023-06-19T08:25:14;101237.53;;;22.05;62.37
71964;BME280;59834;52.124;5.422;2023-06-19T08:27:41;101237.03;;;21.94;62.30
71964;BME280;59834;52.124;5.422;2023-06-19T08:30:08;101242.63;;;22.17;62.61
71964;BME280;59834;52.124;5.422;2023-06-19T08:32:34;101239.78;;;22.26;61.83
71964;BME280;59834;52.124;5.422;2023-06-19T08:35:01;101243.97;;;22.29;61.83
71964;BME280;59834;52.124;5.422;2023-06-19T08:37:29;101252.31;;;22.34;61.48
71964;BME280;59834;52.124;5.422;2023-06-19T08:39:55;101250.66;;;22.41;61.15
71964;BME280;59834;52.124;5.422;2023-06-19T08:42:22;101260.00;;;22.45;60.38
71964;BME280;59834;52.124;5.422;2023-06-19T08:44:49;101268.34;;;22.50;59.89
71964;BME280;59834;52.124;5.422;2023-06-19T08:47:15;101270.19;;;22.91;59.41
71964;BME280;59834;52.124;5.422;2023-06-19T08:49:43;101270.72;;;22.94;59.00
71964;BME280;59834;52.124;5.422;2023-06-19T08:52:10;101284.69;;;22.80;58.96
71964;BME280;59834;52.124;5.422;2023-06-19T08:54:36;101286.00;;;22.51;60.88
71964;BME280;59834;52.124;5.422;2023-06-19T08:57:11;101282.00;;;22.55;59.93
71964;BME280;59834;52.124;5.422;2023-06-19T08:59:39;101280.84;;;22.58;60.01
71964;BME280;59834;52.124;5.422;2023-06-19T09:02:06;101281.66;;;22.67;59.53
71964;BME280;59834;52.124;5.422;2023-06-19T09:04:33;101274.03;;;22.64;59.93
71964;BME280;59834;52.124;5.422;2023-06-19T09:07:03;101271.03;;;22.75;60.29
71964;BME280;59834;52.124;5.422;2023-06-19T09:09:30;101281.69;;;22.91;60.30
71964;BME280;59834;52.124;5.422;2023-06-19T09:14:39;101276.00;;;22.70;60.78
71964;BME280;59834;52.124;5.422;2023-06-19T09:17:09;101279.34;;;22.72;60.59
71964;BME280;59834;52.124;5.422;2023-06-19T09:19:38;101286.00;;;22.59;60.10
71964;BME280;59834;52.124;5.422;2023-06-19T09:22:09;101292.53;;;22.90;60.38
71964;BME280;59834;52.124;5.422;2023-06-19T09:24:37;101292.56;;;23.06;59.59
71964;BME280;59834;52.124;5.422;2023-06-19T09:27:09;101297.09;;;22.97;59.22
71964;BME280;59834;52.124;5.422;2023-06-19T09:29:38;101299.72;;;22.81;59.43
71964;BME280;59834;52.124;5.422;2023-06-19T09:32:25;101305.34;;;22.70;59.80
71964;BME280;59834;52.124;5.422;2023-06-19T09:34:54;101297.69;;;22.75;59.19
71964;BME280;59834;52.124;5.422;2023-06-19T09:37:30;101303.88;;;22.83;60.58
71964;BME280;59834;52.124;5.422;2023-06-19T09:39:57;101318.25;;;22.91;59.52
71964;BME280;59834;52.124;5.422;2023-06-19T09:42:30;101318.25;;;23.07;58.70
71964;BME280;59834;52.124;5.422;2023-06-19T09:45:04;101324.09;;;23.19;57.73
71964;BME280;59834;52.124;5.422;2023-06-19T09:47:35;101319.91;;;23.24;58.08
71964;BME280;59834;52.124;5.422;2023-06-19T09:50:03;101317.22;;;23.33;58.58
71964;BME280;59834;52.124;5.422;2023-06-19T09:52:30;101331.41;;;23.41;56.81
71964;BME280;59834;52.124;5.422;2023-06-19T09:54:57;101326.22;;;23.48;56.77
71964;BME280;59834;52.124;5.422;2023-06-19T09:57:26;101335.38;;;23.78;56.21
71964;BME280;59834;52.124;5.422;2023-06-19T09:59:55;101332.59;;;24.03;55.60
71964;BME280;59834;52.124;5.422;2023-06-19T10:02:27;101334.50;;;24.25;54.69
71964;BME280;59834;52.124;5.422;2023-06-19T10:04:55;101336.78;;;24.05;54.41
71964;BME280;59834;52.124;5.422;2023-06-19T10:07:24;101341.16;;;24.29;54.57
71964;BME280;59834;52.124;5.422;2023-06-19T10:10:06;101342.53;;;24.25;54.38
71964;BME280;59834;52.124;5.422;2023-06-19T10:12:53;101335.97;;;24.28;53.87
71964;BME280;59834;52.124;5.422;2023-06-19T10:15:25;101327.19;;;24.50;53.38
71964;BME280;59834;52.124;5.422;2023-06-19T10:17:59;101331.38;;;24.53;53.56
71964;BME280;59834;52.124;5.422;2023-06-19T10:20:31;101322.44;;;24.60;53.09
71964;BME280;59834;52.124;5.422;2023-06-19T10:23:17;101330.94;;;24.64;53.20
71964;BME280;59834;52.124;5.422;2023-06-19T10:25:48;101330.22;;;24.78;52.76
71964;BME280;59834;52.124;5.422;2023-06-19T10:28:16;101320.44;;;24.85;52.12
71964;BME280;59834;52.124;5.422;2023-06-19T10:30:43;101327.25;;;25.11;52.14
71964;BME280;59834;52.124;5.422;2023-06-19T10:33:09;101329.69;;;25.21;50.78
71964;BME280;59834;52.124;5.422;2023-06-19T10:35:40;101328.56;;;25.15;50.37
71964;BME280;59834;52.124;5.422;2023-06-19T10:38:07;101333.25;;;24.75;51.46
71964;BME280;59834;52.124;5.422;2023-06-19T10:40:36;101331.50;;;24.82;52.05
71964;BME280;59834;52.124;5.422;2023-06-19T10:43:03;101332.34;;;24.83;52.25
71964;BME280;59834;52.124;5.422;2023-06-19T10:45:30;101336.38;;;24.79;51.48
71964;BME280;59834;52.124;5.422;2023-06-19T10:48:00;101330.25;;;24.93;50.27
71964;BME280;59834;52.124;5.422;2023-06-19T10:50:29;101328.88;;;24.97;50.59
71964;BME280;59834;52.124;5.422;2023-06-19T10:52:59;101329.78;;;24.89;51.47
71964;BME280;59834;52.124;5.422;2023-06-19T10:55:25;101333.28;;;24.67;50.75
71964;BME280;59834;52.124;5.422;2023-06-19T10:57:52;101325.09;;;24.68;50.91
71964;BME280;59834;52.124;5.422;2023-06-19T11:00:30;101323.28;;;24.84;50.70
71964;BME280;59834;52.124;5.422;2023-06-19T11:02:57;101328.50;;;25.00;50.56
71964;BME280;59834;52.124;5.422;2023-06-19T11:05:26;101321.13;;;25.25;49.74
71964;BME280;59834;52.124;5.422;2023-06-19T11:07:58;101328.16;;;25.41;49.83
71964;BME280;59834;52.124;5.422;2023-06-19T11:10:27;101324.84;;;25.69;48.75
71964;BME280;59834;52.124;5.422;2023-06-19T11:12:58;101319.78;;;25.59;48.83
71964;BME280;59834;52.124;5.422;2023-06-19T11:15:30;101324.91;;;25.31;48.85
71964;BME280;59834;52.124;5.422;2023-06-19T11:17:58;101320.03;;;25.34;48.78
71964;BME280;59834;52.124;5.422;2023-06-19T11:20:25;101324.94;;;25.46;48.53
71964;BME280;59834;52.124;5.422;2023-06-19T11:23:00;101320.50;;;25.38;48.40
71964;BME280;59834;52.124;5.422;2023-06-19T11:25:37;101320.94;;;25.12;49.30
71964;BME280;59834;52.124;5.422;2023-06-19T11:28:10;101325.06;;;25.14;49.41
71964;BME280;59834;52.124;5.422;2023-06-19T11:30:37;101329.09;;;25.33;48.33
71964;BME280;59834;52.124;5.422;2023-06-19T11:33:03;101336.88;;;25.58;47.99
71964;BME280;59834;52.124;5.422;2023-06-19T11:35:33;101321.28;;;26.06;47.22
71964;BME280;59834;52.124;5.422;2023-06-19T11:38:03;101316.31;;;26.24;47.16
71964;BME280;59834;52.124;5.422;2023-06-19T11:40:38;101328.28;;;26.07;46.35
71964;BME280;59834;52.124;5.422;2023-06-19T11:43:05;101332.28;;;25.81;47.19
71964;BME280;59834;52.124;5.422;2023-06-19T11:45:32;101325.44;;;25.94;47.04
71964;BME280;59834;52.124;5.422;2023-06-19T11:47:58;101323.84;;;26.14;46.36
71964;BME280;59834;52.124;5.422;2023-06-19T11:50:28;101327.84;;;25.89;47.44
71964;BME280;59834;52.124;5.422;2023-06-19T11:52:55;101334.97;;;25.81;46.39
71964;BME280;59834;52.124;5.422;2023-06-19T11:55:23;101336.59;;;26.12;45.27
71964;BME280;59834;52.124;5.422;2023-06-19T11:57:50;101333.19;;;25.89;45.94
71964;BME280;59834;52.124;5.422;2023-06-19T12:00:16;101328.03;;;25.72;47.27
71964;BME280;59834;52.124;5.422;2023-06-19T12:02:44;101330.47;;;25.29;48.30
71964;BME280;59834;52.124;5.422;2023-06-19T12:05:11;101328.47;;;25.61;47.43
71964;BME280;59834;52.124;5.422;2023-06-19T12:07:38;101326.34;;;26.01;45.21
71964;BME280;59834;52.124;5.422;2023-06-19T12:10:05;101333.84;;;25.91;45.75
71964;BME280;59834;52.124;5.422;2023-06-19T12:12:36;101330.13;;;25.47;46.17
71964;BME280;59834;52.124;5.422;2023-06-19T12:15:04;101330.88;;;25.71;46.15
71964;BME280;59834;52.124;5.422;2023-06-19T12:17:31;101324.88;;;25.98;45.64
71964;BME280;59834;52.124;5.422;2023-06-19T12:20:00;101331.72;;;26.01;45.40
71964;BME280;59834;52.124;5.422;2023-06-19T12:22:26;101333.81;;;26.20;45.62
71964;BME280;59834;52.124;5.422;2023-06-19T12:24:53;101341.44;;;25.72;46.41
71964;BME280;59834;52.124;5.422;2023-06-19T12:27:20;101333.09;;;26.12;46.15
71964;BME280;59834;52.124;5.422;2023-06-19T12:29:46;101326.06;;;26.47;45.37
71964;BME280;59834;52.124;5.422;2023-06-19T12:32:13;101332.63;;;26.59;44.94
71964;BME280;59834;52.124;5.422;2023-06-19T12:34:40;101326.28;;;26.88;43.77
71964;BME280;59834;52.124;5.422;2023-06-19T12:37:06;101322.28;;;26.77;43.64
71964;BME280;59834;52.124;5.422;2023-06-19T12:39:33;101322.66;;;26.74;42.80
71964;BME280;59834;52.124;5.422;2023-06-19T12:42:00;101338.31;;;26.71;43.87
71964;BME280;59834;52.124;5.422;2023-06-19T12:44:27;101332.56;;;26.74;42.61
71964;BME280;59834;52.124;5.422;2023-06-19T12:46:53;101339.75;;;26.67;43.59
71964;BME280;59834;52.124;5.422;2023-06-19T12:49:20;101334.84;;;26.55;44.86
71964;BME280;59834;52.124;5.422;2023-06-19T12:51:47;101334.47;;;26.59;42.97
71964;BME280;59834;52.124;5.422;2023-06-19T12:54:18;101337.75;;;26.54;42.12
71964;BME280;59834;52.124;5.422;2023-06-19T12:56:45;101340.28;;;26.62;41.54